PWSweather.com
Personal Weather Stations
Station Observations
SPARKSRC
St. Petersburg, FL 33716

St. Petersburg, FL 33716

Lat: 27.876101, Lon: -82.657194

Elevation: 13

Station Type: Zephyr PWS-1000TD

High Low Average
Temperature 88.3°F31.3°F 80.4°F26.9°F 85.4°F29.7°F
Dew Point 83.4°F28.6°F 80.2°F26.8°F 82.1°F27.8°F
Winds 7.6 mph E12.2 mph E 2.2 mph 3.5 mph 4.6 mph 7.4 mph
Wind Gusts 9.8 mph15.8 mph 6.0 mph9.7 mph 8.6 mph13.8 mph
Humidity 99% 83% 90%
Pressure 29.98 in1015.20 in 29.96 in1014.60 in -
Precipitation 0.00 in0.00 in - -
Hour Temp Dew Point Humidity Winds Wind Gusts Pressure Precip Precip Rate Daily Precip Total
10:05 AM 80.4°F26.9°C 80.2°F26.8°C 99% 2.2 mph ENE3.5 kmh ENE 6.0 mph9.7 kmh 29.97 in1014.9 mb 0.00 in0.0 mm 0.00 in/hr0.0 mm/hr 0.00 in0.0 mm
10:10 AM 81.3°F27.4°C 81.1°F27.3°C 99% 4.5 mph NE7.2 kmh NE 8.3 mph13.4 kmh 29.97 in1014.9 mb 0.00 in0.0 mm 0.00 in/hr0.0 mm/hr 0.00 in0.0 mm
10:15 AM 82.2°F27.9°C 81.7°F27.6°C 98% 3.1 mph NE5.0 kmh NE 8.3 mph13.4 kmh 29.97 in1014.9 mb 0.00 in0.0 mm 0.00 in/hr0.0 mm/hr 0.00 in0.0 mm
10:20 AM 82.8°F28.2°C 81.6°F27.6°C 96% 4.5 mph ENE7.2 kmh ENE 7.6 mph12.2 kmh 29.97 in1014.9 mb 0.00 in0.0 mm 0.00 in/hr0.0 mm/hr 0.00 in0.0 mm
10:25 AM 83.5°F28.6°C 82.3°F27.9°C 96% 6.9 mph ENE11.1 kmh ENE 8.3 mph13.4 kmh 29.97 in1014.9 mb 0.00 in0.0 mm 0.00 in/hr0.0 mm/hr 0.00 in0.0 mm
10:30 AM 83.8°F28.8°C 82.0°F27.8°C 94% 4.5 mph ENE7.2 kmh ENE 9.2 mph14.8 kmh 29.97 in1014.9 mb 0.00 in0.0 mm 0.00 in/hr0.0 mm/hr 0.00 in0.0 mm
10:35 AM 84.2°F29.0°C 82.0°F27.8°C 93% 5.4 mph ENE8.7 kmh ENE 9.8 mph15.8 kmh 29.97 in1014.9 mb 0.00 in0.0 mm 0.00 in/hr0.0 mm/hr 0.00 in0.0 mm
10:40 AM 84.7°F29.3°C 81.9°F27.7°C 91% 6.0 mph ENE9.7 kmh ENE 9.8 mph15.8 kmh 29.97 in1014.9 mb 0.00 in0.0 mm 0.00 in/hr0.0 mm/hr 0.00 in0.0 mm
10:45 AM 85.1°F29.5°C 81.9°F27.7°C 90% 7.6 mph E12.2 kmh E 9.2 mph14.8 kmh 29.98 in1015.2 mb 0.00 in0.0 mm 0.00 in/hr0.0 mm/hr 0.00 in0.0 mm
10:50 AM 85.1°F29.5°C 81.9°F27.7°C 90% 7.6 mph E12.2 kmh E 9.2 mph14.8 kmh 29.97 in1014.9 mb 0.00 in0.0 mm 0.00 in/hr0.0 mm/hr 0.00 in0.0 mm
10:55 AM 85.1°F29.5°C 81.9°F27.7°C 90% 2.2 mph E3.5 kmh E 9.2 mph14.8 kmh 29.97 in1014.9 mb 0.00 in0.0 mm 0.00 in/hr0.0 mm/hr 0.00 in0.0 mm
11:00 AM 85.3°F29.6°C 82.4°F28.0°C 91% 5.4 mph ENE8.7 kmh ENE 9.2 mph14.8 kmh 29.98 in1015.2 mb 0.00 in0.0 mm 0.00 in/hr0.0 mm/hr 0.00 in0.0 mm
11:05 AM 85.8°F29.9°C 81.9°F27.7°C 88% 3.1 mph E5.0 kmh E 8.3 mph13.4 kmh 29.97 in1014.9 mb 0.00 in0.0 mm 0.00 in/hr0.0 mm/hr 0.00 in0.0 mm
11:10 AM 86.4°F30.2°C 82.8°F28.2°C 89% 5.4 mph E8.7 kmh E 8.3 mph13.4 kmh 29.96 in1014.6 mb 0.00 in0.0 mm 0.00 in/hr0.0 mm/hr 0.00 in0.0 mm
11:15 AM 87.1°F30.6°C 82.8°F28.2°C 87% 4.5 mph E7.2 kmh E 8.3 mph13.4 kmh 29.97 in1014.9 mb 0.00 in0.0 mm 0.00 in/hr0.0 mm/hr 0.00 in0.0 mm
11:20 AM 88.0°F31.1°C 83.4°F28.6°C 86% 5.4 mph E8.7 kmh E 8.3 mph13.4 kmh 29.97 in1014.9 mb 0.00 in0.0 mm 0.00 in/hr0.0 mm/hr 0.00 in0.0 mm
11:25 AM 88.3°F31.3°C 83.0°F28.3°C 84% 3.1 mph NE5.0 kmh NE 8.3 mph13.4 kmh 29.97 in1014.9 mb 0.00 in0.0 mm 0.00 in/hr0.0 mm/hr 0.00 in0.0 mm
11:30 AM 88.3°F31.3°C 83.0°F28.3°C 84% 3.8 mph NE6.1 kmh NE 8.3 mph13.4 kmh 29.96 in1014.6 mb 0.00 in0.0 mm 0.00 in/hr0.0 mm/hr 0.00 in0.0 mm
11:35 AM 88.3°F31.3°C 83.0°F28.3°C 84% 3.8 mph ENE6.1 kmh ENE 7.6 mph12.2 kmh 29.96 in1014.6 mb 0.00 in0.0 mm 0.00 in/hr0.0 mm/hr 0.00 in0.0 mm
11:40 AM 88.2°F31.2°C 82.4°F28.0°C 83% 3.8 mph NE6.1 kmh NE 9.2 mph14.8 kmh 29.96 in1014.6 mb 0.00 in0.0 mm 0.00 in/hr0.0 mm/hr 0.00 in0.0 mm
11:45 AM 87.3°F30.7°C 81.9°F27.7°C 84% 3.1 mph NE5.0 kmh NE 9.2 mph14.8 kmh 29.96 in1014.6 mb 0.00 in0.0 mm 0.00 in/hr0.0 mm/hr 0.00 in0.0 mm
11:50 AM 87.4°F30.8°C 82.1°F27.8°C 84% 6.0 mph NE9.7 kmh NE 8.3 mph13.4 kmh 29.96 in1014.6 mb 0.00 in0.0 mm 0.00 in/hr0.0 mm/hr 0.00 in0.0 mm